sensor_id;sensor_type;location;lat;lon;timestamp;pressure;altitude;pressure_sealevel;temperature;humidity
8641;BME280;4358;42.100;25.222;2024-01-07T00:01:58;98799.72;;;11.01;100.00
8641;BME280;4358;42.100;25.222;2024-01-07T00:04:26;98806.91;;;11.10;100.00
8641;BME280;4358;42.100;25.222;2024-01-07T00:06:53;98787.19;;;11.03;100.00
8641;BME280;4358;42.100;25.222;2024-01-07T00:09:20;98773.75;;;11.04;100.00
8641;BME280;4358;42.100;25.222;2024-01-07T00:11:47;98759.34;;;10.97;100.00
8641;BME280;4358;42.100;25.222;2024-01-07T00:14:15;98770.81;;;10.98;100.00
8641;BME280;4358;42.100;25.222;2024-01-07T00:16:42;98780.75;;;11.05;100.00
8641;BME280;4358;42.100;25.222;2024-01-07T00:19:09;98770.13;;;11.05;100.00
8641;BME280;4358;42.100;25.222;2024-01-07T00:21:37;98785.22;;;11.05;100.00
8641;BME280;4358;42.100;25.222;2024-01-07T01:47:16;98603.75;;;11.35;100.00
8641;BME280;4358;42.100;25.222;2024-01-07T01:49:44;98589.06;;;11.31;100.00
8641;BME280;4358;42.100;25.222;2024-01-07T01:52:12;98584.31;;;11.34;100.00
8641;BME280;4358;42.100;25.222;2024-01-07T01:54:40;98582.50;;;11.35;100.00
8641;BME280;4358;42.100;25.222;2024-01-07T01:57:08;98573.97;;;11.22;100.00
8641;BME280;4358;42.100;25.222;2024-01-07T01:59:37;98564.31;;;11.21;100.00
8641;BME280;4358;42.100;25.222;2024-01-07T02:02:04;98556.09;;;11.24;100.00
8641;BME280;4358;42.100;25.222;2024-01-07T02:26:22;98497.09;;;11.11;100.00
8641;BME280;4358;42.100;25.222;2024-01-07T02:28:49;98479.06;;;11.04;100.00
8641;BME280;4358;42.100;25.222;2024-01-07T02:31:16;98456.19;;;11.03;100.00
8641;BME280;4358;42.100;25.222;2024-01-07T03:00:40;98432.28;;;11.03;100.00
8641;BME280;4358;42.100;25.222;2024-01-07T03:03:07;98416.63;;;11.00;100.00
8641;BME280;4358;42.100;25.222;2024-01-07T03:05:34;98408.97;;;10.97;100.00
8641;BME280;4358;42.100;25.222;2024-01-07T03:08:01;98412.72;;;10.95;100.00
8641;BME280;4358;42.100;25.222;2024-01-07T03:10:27;98404.63;;;10.96;100.00
8641;BME280;4358;42.100;25.222;2024-01-07T03:12:54;98409.09;;;10.96;100.00
8641;BME280;4358;42.100;25.222;2024-01-07T03:15:21;98385.06;;;10.97;100.00
8641;BME280;4358;42.100;25.222;2024-01-07T03:17:49;98392.31;;;10.95;100.00
8641;BME280;4358;42.100;25.222;2024-01-07T03:20:16;98382.53;;;10.96;100.00
8641;BME280;4358;42.100;25.222;2024-01-07T03:22:43;98363.00;;;10.97;100.00
8641;BME280;4358;42.100;25.222;2024-01-07T03:25:10;98354.63;;;10.92;100.00
8641;BME280;4358;42.100;25.222;2024-01-07T03:27:36;98351.13;;;10.91;100.00
8641;BME280;4358;42.100;25.222;2024-01-07T03:30:04;98342.63;;;10.88;100.00
8641;BME280;4358;42.100;25.222;2024-01-07T03:32:31;98361.03;;;10.89;100.00
8641;BME280;4358;42.100;25.222;2024-01-07T03:34:59;98369.69;;;10.91;100.00
8641;BME280;4358;42.100;25.222;2024-01-07T03:37:26;98373.34;;;10.90;100.00
8641;BME280;4358;42.100;25.222;2024-01-07T03:39:53;98380.75;;;10.87;100.00
8641;BME280;4358;42.100;25.222;2024-01-07T03:42:20;98376.97;;;10.89;100.00
8641;BME280;4358;42.100;25.222;2024-01-07T03:44:46;98388.28;;;10.91;100.00
8641;BME280;4358;42.100;25.222;2024-01-07T03:47:13;98382.00;;;10.92;100.00
8641;BME280;4358;42.100;25.222;2024-01-07T03:49:40;98376.69;;;10.92;100.00
8641;BME280;4358;42.100;25.222;2024-01-07T03:52:09;98378.63;;;10.90;100.00
8641;BME280;4358;42.100;25.222;2024-01-07T03:54:35;98385.34;;;10.94;100.00
8641;BME280;4358;42.100;25.222;2024-01-07T03:57:02;98371.38;;;10.92;100.00
8641;BME280;4358;42.100;25.222;2024-01-07T03:59:29;98362.44;;;10.93;100.00
8641;BME280;4358;42.100;25.222;2024-01-07T04:01:57;98354.88;;;10.89;100.00
8641;BME280;4358;42.100;25.222;2024-01-07T04:04:24;98341.78;;;10.87;100.00
8641;BME280;4358;42.100;25.222;2024-01-07T04:06:50;98324.31;;;10.85;100.00
8641;BME280;4358;42.100;25.222;2024-01-07T04:09:19;98325.84;;;10.87;100.00
8641;BME280;4358;42.100;25.222;2024-01-07T04:11:45;98317.19;;;10.85;100.00
8641;BME280;4358;42.100;25.222;2024-01-07T04:14:14;98295.13;;;10.85;100.00
8641;BME280;4358;42.100;25.222;2024-01-07T04:16:41;98286.88;;;10.78;100.00
8641;BME280;4358;42.100;25.222;2024-01-07T04:19:08;98295.28;;;10.83;100.00
8641;BME280;4358;42.100;25.222;2024-01-07T04:21:35;98303.50;;;10.80;100.00
8641;BME280;4358;42.100;25.222;2024-01-07T04:24:02;98296.81;;;10.76;100.00
8641;BME280;4358;42.100;25.222;2024-01-07T04:26:30;98299.34;;;10.78;100.00
8641;BME280;4358;42.100;25.222;2024-01-07T04:28:57;98291.94;;;10.81;100.00
8641;BME280;4358;42.100;25.222;2024-01-07T04:31:24;98278.94;;;10.78;100.00
8641;BME280;4358;42.100;25.222;2024-01-07T04:33:50;98273.63;;;10.78;100.00
8641;BME280;4358;42.100;25.222;2024-01-07T04:36:17;98280.31;;;10.92;100.00
8641;BME280;4358;42.100;25.222;2024-01-07T04:38:44;98286.41;;;11.02;100.00
8641;BME280;4358;42.100;25.222;2024-01-07T04:41:11;98296.47;;;11.08;100.00
8641;BME280;4358;42.100;25.222;2024-01-07T04:43:39;98311.56;;;11.08;100.00
8641;BME280;4358;42.100;25.222;2024-01-07T04:46:06;98316.59;;;11.01;100.00
8641;BME280;4358;42.100;25.222;2024-01-07T04:48:35;98297.47;;;10.97;100.00
8641;BME280;4358;42.100;25.222;2024-01-07T04:51:02;98298.44;;;10.96;100.00
8641;BME280;4358;42.100;25.222;2024-01-07T04:53:29;98290.59;;;11.04;100.00
8641;BME280;4358;42.100;25.222;2024-01-07T04:55:56;98291.59;;;11.03;100.00
8641;BME280;4358;42.100;25.222;2024-01-07T04:58:23;98288.78;;;11.05;100.00
8641;BME280;4358;42.100;25.222;2024-01-07T05:00:51;98293.66;;;11.10;100.00
8641;BME280;4358;42.100;25.222;2024-01-07T05:03:18;98306.81;;;11.01;100.00
8641;BME280;4358;42.100;25.222;2024-01-07T05:05:45;98323.03;;;10.98;100.00
8641;BME280;4358;42.100;25.222;2024-01-07T05:08:11;98332.53;;;10.91;100.00
8641;BME280;4358;42.100;25.222;2024-01-07T05:10:38;98346.53;;;10.93;100.00
8641;BME280;4358;42.100;25.222;2024-01-07T05:13:05;98353.72;;;11.11;100.00
8641;BME280;4358;42.100;25.222;2024-01-07T05:15:32;98364.06;;;11.23;100.00
8641;BME280;4358;42.100;25.222;2024-01-07T05:18:00;98352.31;;;11.16;100.00
8641;BME280;4358;42.100;25.222;2024-01-07T05:20:27;98359.84;;;11.21;100.00
8641;BME280;4358;42.100;25.222;2024-01-07T05:22:54;98355.38;;;11.21;100.00
8641;BME280;4358;42.100;25.222;2024-01-07T05:25:21;98365.97;;;11.31;100.00
8641;BME280;4358;42.100;25.222;2024-01-07T05:27:48;98380.66;;;11.35;100.00
8641;BME280;4358;42.100;25.222;2024-01-07T05:30:15;98398.41;;;11.34;100.00
8641;BME280;4358;42.100;25.222;2024-01-07T05:32:42;98394.50;;;11.29;100.00
8641;BME280;4358;42.100;25.222;2024-01-07T05:35:10;98380.56;;;11.08;100.00
8641;BME280;4358;42.100;25.222;2024-01-07T05:37:37;98390.88;;;11.20;100.00
8641;BME280;4358;42.100;25.222;2024-01-07T05:40:04;98408.66;;;11.20;100.00
8641;BME280;4358;42.100;25.222;2024-01-07T05:42:31;98403.34;;;11.20;100.00
8641;BME280;4358;42.100;25.222;2024-01-07T05:44:58;98393.13;;;11.15;100.00
8641;BME280;4358;42.100;25.222;2024-01-07T05:47:25;98376.69;;;10.92;100.00
8641;BME280;4358;42.100;25.222;2024-01-07T05:49:52;98366.78;;;10.85;100.00
8641;BME280;4358;42.100;25.222;2024-01-07T05:52:20;98358.69;;;10.86;100.00
8641;BME280;4358;42.100;25.222;2024-01-07T05:54:46;98373.47;;;10.79;100.00
8641;BME280;4358;42.100;25.222;2024-01-07T05:57:13;98370.28;;;10.66;100.00
8641;BME280;4358;42.100;25.222;2024-01-07T05:59:40;98355.34;;;10.55;100.00
8641;BME280;4358;42.100;25.222;2024-01-07T06:02:07;98351.44;;;10.59;100.00
8641;BME280;4358;42.100;25.222;2024-01-07T06:04:34;98334.00;;;10.57;100.00
8641;BME280;4358;42.100;25.222;2024-01-07T06:07:01;98307.31;;;10.78;100.00
8641;BME280;4358;42.100;25.222;2024-01-07T06:09:29;98284.66;;;10.83;100.00
8641;BME280;4358;42.100;25.222;2024-01-07T06:11:56;98302.53;;;10.81;100.00
8641;BME280;4358;42.100;25.222;2024-01-07T06:14:22;98309.53;;;10.82;100.00
8641;BME280;4358;42.100;25.222;2024-01-07T06:16:50;98315.25;;;10.68;100.00
8641;BME280;4358;42.100;25.222;2024-01-07T06:19:17;98320.97;;;10.73;100.00
8641;BME280;4358;42.100;25.222;2024-01-07T06:21:44;98323.06;;;10.79;100.00
8641;BME280;4358;42.100;25.222;2024-01-07T06:24:11;98320.00;;;10.74;100.00
8641;BME280;4358;42.100;25.222;2024-01-07T06:26:39;98318.06;;;10.76;100.00
8641;BME280;4358;42.100;25.222;2024-01-07T06:29:08;98309.13;;;10.77;100.00
8641;BME280;4358;42.100;25.222;2024-01-07T06:31:35;98315.50;;;10.84;100.00
8641;BME280;4358;42.100;25.222;2024-01-07T06:34:02;98319.81;;;10.95;100.00
8641;BME280;4358;42.100;25.222;2024-01-07T06:36:29;98317.13;;;11.04;100.00
8641;BME280;4358;42.100;25.222;2024-01-07T06:38:55;98328.06;;;11.01;100.00
8641;BME280;4358;42.100;25.222;2024-01-07T06:41:22;98335.31;;;11.09;100.00
8641;BME280;4358;42.100;25.222;2024-01-07T06:43:50;98343.38;;;11.17;100.00
8641;BME280;4358;42.100;25.222;2024-01-07T06:46:19;98344.72;;;11.31;100.00
8641;BME280;4358;42.100;25.222;2024-01-07T06:48:46;98365.66;;;11.43;100.00
8641;BME280;4358;42.100;25.222;2024-01-07T06:51:14;98372.09;;;11.51;100.00
8641;BME280;4358;42.100;25.222;2024-01-07T06:53:41;98376.25;;;11.53;100.00
8641;BME280;4358;42.100;25.222;2024-01-07T06:56:07;98372.75;;;11.53;100.00
8641;BME280;4358;42.100;25.222;2024-01-07T06:58:34;98378.47;;;11.58;100.00
8641;BME280;4358;42.100;25.222;2024-01-07T07:01:02;98362.56;;;11.48;100.00
8641;BME280;4358;42.100;25.222;2024-01-07T07:03:29;98369.97;;;11.54;100.00
8641;BME280;4358;42.100;25.222;2024-01-07T07:05:56;98375.66;;;11.59;100.00
8641;BME280;4358;42.100;25.222;2024-01-07T07:08:23;98386.00;;;11.62;100.00
8641;BME280;4358;42.100;25.222;2024-01-07T07:10:50;98408.34;;;11.69;100.00
8641;BME280;4358;42.100;25.222;2024-01-07T07:13:16;98394.94;;;11.71;100.00
8641;BME280;4358;42.100;25.222;2024-01-07T07:15:43;98394.66;;;11.74;100.00
8641;BME280;4358;42.100;25.222;2024-01-07T07:18:11;98395.22;;;11.77;100.00
8641;BME280;4358;42.100;25.222;2024-01-07T07:20:38;98384.28;;;11.80;100.00
8641;BME280;4358;42.100;25.222;2024-01-07T07:23:05;98385.53;;;11.86;100.00
8641;BME280;4358;42.100;25.222;2024-01-07T07:25:31;98373.59;;;11.90;100.00
8641;BME280;4358;42.100;25.222;2024-01-07T07:27:58;98366.00;;;11.95;100.00
8641;BME280;4358;42.100;25.222;2024-01-07T07:30:25;98374.91;;;12.04;100.00
8641;BME280;4358;42.100;25.222;2024-01-07T07:32:52;98369.31;;;12.07;100.00
8641;BME280;4358;42.100;25.222;2024-01-07T07:35:20;98367.03;;;12.12;100.00
8641;BME280;4358;42.100;25.222;2024-01-07T07:37:47;98363.72;;;12.27;100.00
8641;BME280;4358;42.100;25.222;2024-01-07T07:40:14;98359.88;;;12.40;100.00
8641;BME280;4358;42.100;25.222;2024-01-07T07:42:40;98365.47;;;12.54;100.00
8641;BME280;4358;42.100;25.222;2024-01-07T07:45:08;98373.91;;;12.67;100.00
8641;BME280;4358;42.100;25.222;2024-01-07T07:47:35;98386.38;;;12.85;100.00
8641;BME280;4358;42.100;25.222;2024-01-07T07:50:02;98393.59;;;12.92;100.00
8641;BME280;4358;42.100;25.222;2024-01-07T07:52:30;98383.47;;;12.96;100.00
8641;BME280;4358;42.100;25.222;2024-01-07T07:54:57;98385.16;;;12.97;100.00
8641;BME280;4358;42.100;25.222;2024-01-07T07:57:24;98387.03;;;13.04;100.00
8641;BME280;4358;42.100;25.222;2024-01-07T07:59:51;98378.56;;;13.09;100.00
8641;BME280;4358;42.100;25.222;2024-01-07T08:02:18;98381.09;;;13.10;100.00
8641;BME280;4358;42.100;25.222;2024-01-07T08:04:46;98387.25;;;13.11;100.00
8641;BME280;4358;42.100;25.222;2024-01-07T08:07:13;98407.66;;;13.20;100.00
8641;BME280;4358;42.100;25.222;2024-01-07T08:09:41;98399.00;;;13.18;100.00
8641;BME280;4358;42.100;25.222;2024-01-07T08:12:08;98388.13;;;13.11;100.00
8641;BME280;4358;42.100;25.222;2024-01-07T08:14:37;98379.34;;;13.19;100.00
8641;BME280;4358;42.100;25.222;2024-01-07T08:17:06;98384.22;;;13.24;100.00
8641;BME280;4358;42.100;25.222;2024-01-07T08:19:33;98375.59;;;13.30;100.00
8641;BME280;4358;42.100;25.222;2024-01-07T08:22:00;98368.44;;;13.30;100.00
8641;BME280;4358;42.100;25.222;2024-01-07T08:24:26;98359.31;;;13.33;100.00
8641;BME280;4358;42.100;25.222;2024-01-07T08:26:55;98374.66;;;13.39;100.00
8641;BME280;4358;42.100;25.222;2024-01-07T08:29:21;98366.50;;;13.40;100.00
8641;BME280;4358;42.100;25.222;2024-01-07T08:31:48;98368.72;;;13.45;100.00
8641;BME280;4358;42.100;25.222;2024-01-07T08:34:15;98368.88;;;13.51;100.00
8641;BME280;4358;42.100;25.222;2024-01-07T08:36:42;98371.56;;;13.51;100.00
8641;BME280;4358;42.100;25.222;2024-01-07T08:39:08;98371.63;;;13.60;100.00
8641;BME280;4358;42.100;25.222;2024-01-07T08:41:36;98361.31;;;13.65;100.00
8641;BME280;4358;42.100;25.222;2024-01-07T08:44:05;98368.34;;;13.74;100.00
8641;BME280;4358;42.100;25.222;2024-01-07T08:46:33;98371.22;;;13.88;100.00
8641;BME280;4358;42.100;25.222;2024-01-07T08:49:01;98373.13;;;14.04;100.00
8641;BME280;4358;42.100;25.222;2024-01-07T08:51:28;98378.31;;;14.14;100.00
8641;BME280;4358;42.100;25.222;2024-01-07T08:53:56;98383.91;;;14.28;100.00
8641;BME280;4358;42.100;25.222;2024-01-07T08:56:24;98375.94;;;14.36;100.00
8641;BME280;4358;42.100;25.222;2024-01-07T08:58:51;98377.59;;;14.46;100.00
8641;BME280;4358;42.100;25.222;2024-01-07T09:01:20;98369.59;;;14.46;100.00
8641;BME280;4358;42.100;25.222;2024-01-07T09:03:46;98357.78;;;14.48;100.00
8641;BME280;4358;42.100;25.222;2024-01-07T09:06:13;98351.91;;;14.45;100.00
8641;BME280;4358;42.100;25.222;2024-01-07T09:08:40;98354.75;;;14.43;100.00
8641;BME280;4358;42.100;25.222;2024-01-07T09:11:08;98347.94;;;14.49;100.00
8641;BME280;4358;42.100;25.222;2024-01-07T09:13:36;98340.56;;;14.51;100.00
8641;BME280;4358;42.100;25.222;2024-01-07T09:16:04;98331.56;;;14.52;100.00
8641;BME280;4358;42.100;25.222;2024-01-07T09:18:32;98332.22;;;14.46;100.00
8641;BME280;4358;42.100;25.222;2024-01-07T09:20:58;98325.22;;;14.36;100.00
8641;BME280;4358;42.100;25.222;2024-01-07T09:23:25;98323.56;;;14.44;100.00
8641;BME280;4358;42.100;25.222;2024-01-07T09:25:52;98314.91;;;14.50;100.00
8641;BME280;4358;42.100;25.222;2024-01-07T09:28:19;98305.38;;;14.55;100.00
8641;BME280;4358;42.100;25.222;2024-01-07T09:30:46;98310.56;;;14.57;100.00
8641;BME280;4358;42.100;25.222;2024-01-07T09:33:12;98303.72;;;14.62;100.00
8641;BME280;4358;42.100;25.222;2024-01-07T09:35:42;98302.56;;;14.65;100.00
8641;BME280;4358;42.100;25.222;2024-01-07T09:38:09;98295.06;;;14.68;100.00
8641;BME280;4358;42.100;25.222;2024-01-07T09:40:37;98298.22;;;14.72;100.00
8641;BME280;4358;42.100;25.222;2024-01-07T09:43:04;98284.53;;;14.75;100.00
8641;BME280;4358;42.100;25.222;2024-01-07T09:45:31;98296.88;;;14.76;100.00
8641;BME280;4358;42.100;25.222;2024-01-07T09:47:59;98278.69;;;14.79;100.00
8641;BME280;4358;42.100;25.222;2024-01-07T09:50:25;98277.31;;;14.92;100.00
8641;BME280;4358;42.100;25.222;2024-01-07T09:52:56;98288.84;;;14.92;100.00
8641;BME280;4358;42.100;25.222;2024-01-07T09:55:27;98287.53;;;14.96;100.00
8641;BME280;4358;42.100;25.222;2024-01-07T09:57:56;98286.84;;;14.94;100.00
8641;BME280;4358;42.100;25.222;2024-01-07T10:00:22;98284.53;;;14.91;100.00
8641;BME280;4358;42.100;25.222;2024-01-07T10:02:51;98270.81;;;14.94;100.00
8641;BME280;4358;42.100;25.222;2024-01-07T10:05:17;98273.31;;;15.04;100.00
8641;BME280;4358;42.100;25.222;2024-01-07T10:07:44;98262.13;;;15.00;100.00
8641;BME280;4358;42.100;25.222;2024-01-07T10:10:14;98260.63;;;15.06;100.00
8641;BME280;4358;42.100;25.222;2024-01-07T10:12:41;98256.75;;;15.08;100.00
8641;BME280;4358;42.100;25.222;2024-01-07T10:15:08;98247.06;;;15.07;100.00
8641;BME280;4358;42.100;25.222;2024-01-07T10:17:35;98228.88;;;15.03;100.00
8641;BME280;4358;42.100;25.222;2024-01-07T10:20:04;98215.38;;;15.04;100.00
8641;BME280;4358;42.100;25.222;2024-01-07T10:22:34;98212.31;;;15.15;100.00
8641;BME280;4358;42.100;25.222;2024-01-07T10:25:01;98209.97;;;15.20;100.00
8641;BME280;4358;42.100;25.222;2024-01-07T10:27:29;98202.63;;;15.22;100.00
8641;BME280;4358;42.100;25.222;2024-01-07T10:29:58;98198.59;;;15.18;100.00
8641;BME280;4358;42.100;25.222;2024-01-07T10:32:25;98198.66;;;15.10;100.00
8641;BME280;4358;42.100;25.222;2024-01-07T10:34:56;98190.69;;;14.94;100.00
8641;BME280;4358;42.100;25.222;2024-01-07T10:37:24;98186.34;;;14.93;100.00
8641;BME280;4358;42.100;25.222;2024-01-07T10:39:51;98190.00;;;14.92;100.00
8641;BME280;4358;42.100;25.222;2024-01-07T10:42:19;98198.34;;;14.97;100.00
8641;BME280;4358;42.100;25.222;2024-01-07T10:44:47;98184.66;;;14.92;100.00
8641;BME280;4358;42.100;25.222;2024-01-07T10:47:15;98179.16;;;14.94;100.00
8641;BME280;4358;42.100;25.222;2024-01-07T10:49:48;98167.13;;;14.98;100.00
8641;BME280;4358;42.100;25.222;2024-01-07T10:52:17;98160.94;;;14.97;100.00
8641;BME280;4358;42.100;25.222;2024-01-07T10:54:47;98160.94;;;15.05;100.00
8641;BME280;4358;42.100;25.222;2024-01-07T10:57:19;98153.75;;;15.06;100.00
8641;BME280;4358;42.100;25.222;2024-01-07T10:59:50;98154.75;;;15.05;100.00
8641;BME280;4358;42.100;25.222;2024-01-07T11:02:20;98153.75;;;15.06;100.00
8641;BME280;4358;42.100;25.222;2024-01-07T11:04:53;98147.91;;;15.02;100.00
8641;BME280;4358;42.100;25.222;2024-01-07T11:07:27;98147.22;;;15.08;100.00
8641;BME280;4358;42.100;25.222;2024-01-07T11:10:07;98148.56;;;15.12;100.00
8641;BME280;4358;42.100;25.222;2024-01-07T11:12:35;98147.38;;;15.15;100.00
8641;BME280;4358;42.100;25.222;2024-01-07T11:15:04;98142.53;;;15.10;100.00
8641;BME280;4358;42.100;25.222;2024-01-07T11:17:40;98141.84;;;15.16;100.00
8641;BME280;4358;42.100;25.222;2024-01-07T11:20:13;98148.69;;;15.19;100.00
8641;BME280;4358;42.100;25.222;2024-01-07T11:22:40;98149.19;;;15.22;100.00
8641;BME280;4358;42.100;25.222;2024-01-07T11:25:28;98150.13;;;15.30;100.00
8641;BME280;4358;42.100;25.222;2024-01-07T11:27:56;98147.75;;;15.35;100.00
8641;BME280;4358;42.100;25.222;2024-01-07T11:30:25;98149.06;;;15.39;100.00
8641;BME280;4358;42.100;25.222;2024-01-07T11:32:58;98149.22;;;15.45;100.00
8641;BME280;4358;42.100;25.222;2024-01-07T11:35:53;98146.00;;;15.50;100.00
8641;BME280;4358;42.100;25.222;2024-01-07T11:38:20;98147.38;;;15.54;100.00
8641;BME280;4358;42.100;25.222;2024-01-07T11:40:49;98143.63;;;15.63;100.00
8641;BME280;4358;42.100;25.222;2024-01-07T11:43:16;98140.78;;;15.64;100.00
8641;BME280;4358;42.100;25.222;2024-01-07T11:45:45;98151.28;;;15.66;100.00
8641;BME280;4358;42.100;25.222;2024-01-07T11:48:12;98157.59;;;15.73;100.00
8641;BME280;4358;42.100;25.222;2024-01-07T11:50:39;98155.59;;;15.75;100.00
8641;BME280;4358;42.100;25.222;2024-01-07T11:53:06;98144.53;;;15.78;100.00
8641;BME280;4358;42.100;25.222;2024-01-07T11:55:33;98137.81;;;15.82;100.00
8641;BME280;4358;42.100;25.222;2024-01-07T11:58:02;98138.47;;;15.84;100.00
8641;BME280;4358;42.100;25.222;2024-01-07T12:00:31;98140.97;;;15.86;100.00
8641;BME280;4358;42.100;25.222;2024-01-07T12:03:00;98129.63;;;15.84;100.00
8641;BME280;4358;42.100;25.222;2024-01-07T12:05:27;98119.75;;;15.84;100.00
8641;BME280;4358;42.100;25.222;2024-01-07T12:07:54;98114.22;;;15.86;100.00
8641;BME280;4358;42.100;25.222;2024-01-07T12:10:20;98118.66;;;15.93;100.00
8641;BME280;4358;42.100;25.222;2024-01-07T12:12:48;98116.44;;;15.97;100.00
8641;BME280;4358;42.100;25.222;2024-01-07T12:15:15;98123.47;;;15.98;100.00
8641;BME280;4358;42.100;25.222;2024-01-07T12:17:42;98122.63;;;15.97;100.00
8641;BME280;4358;42.100;25.222;2024-01-07T12:20:10;98118.53;;;15.87;100.00
8641;BME280;4358;42.100;25.222;2024-01-07T12:22:37;98118.66;;;15.93;100.00
8641;BME280;4358;42.100;25.222;2024-01-07T12:25:06;98119.88;;;15.91;100.00
8641;BME280;4358;42.100;25.222;2024-01-07T12:27:34;98118.00;;;15.91;100.00
8641;BME280;4358;42.100;25.222;2024-01-07T12:30:01;98120.44;;;16.01;100.00
8641;BME280;4358;42.100;25.222;2024-01-07T12:32:30;98113.25;;;16.01;100.00
8641;BME280;4358;42.100;25.222;2024-01-07T12:34:57;98119.53;;;16.08;100.00
8641;BME280;4358;42.100;25.222;2024-01-07T12:37:27;98108.53;;;16.03;100.00
8641;BME280;4358;42.100;25.222;2024-01-07T12:39:54;98115.19;;;16.07;100.00
8641;BME280;4358;42.100;25.222;2024-01-07T12:42:21;98121.91;;;16.03;100.00
8641;BME280;4358;42.100;25.222;2024-01-07T12:44:48;98120.03;;;15.89;100.00
8641;BME280;4358;42.100;25.222;2024-01-07T12:47:16;98116.56;;;15.81;100.00
8641;BME280;4358;42.100;25.222;2024-01-07T12:49:42;98116.34;;;15.67;100.00
8641;BME280;4358;42.100;25.222;2024-01-07T12:52:09;98117.19;;;15.68;100.00
8641;BME280;4358;42.100;25.222;2024-01-07T12:54:38;98120.63;;;15.54;100.00
8641;BME280;4358;42.100;25.222;2024-01-07T12:57:05;98122.97;;;15.49;100.00
8641;BME280;4358;42.100;25.222;2024-01-07T12:59:32;98113.41;;;15.23;100.00
8641;BME280;4358;42.100;25.222;2024-01-07T13:01:58;98103.78;;;15.14;100.00
8641;BME280;4358;42.100;25.222;2024-01-07T13:04:25;98106.22;;;14.93;100.00
8641;BME280;4358;42.100;25.222;2024-01-07T13:06:52;98107.22;;;14.92;100.00
8641;BME280;4358;42.100;25.222;2024-01-07T13:09:19;98113.97;;;14.80;100.00
8641;BME280;4358;42.100;25.222;2024-01-07T13:11:47;98116.31;;;14.75;100.00
8641;BME280;4358;42.100;25.222;2024-01-07T13:14:14;98106.03;;;14.48;100.00
8641;BME280;4358;42.100;25.222;2024-01-07T13:16:41;98116.03;;;14.46;100.00
8641;BME280;4358;42.100;25.222;2024-01-07T13:19:08;98112.41;;;14.38;100.00
8641;BME280;4358;42.100;25.222;2024-01-07T13:21:36;98121.75;;;14.18;100.00
8641;BME280;4358;42.100;25.222;2024-01-07T13:24:04;98124.75;;;14.23;100.00
8641;BME280;4358;42.100;25.222;2024-01-07T13:26:31;98118.88;;;14.36;100.00
8641;BME280;4358;42.100;25.222;2024-01-07T13:28:59;98120.56;;;14.37;100.00
8641;BME280;4358;42.100;25.222;2024-01-07T13:31:26;98110.38;;;14.40;100.00
8641;BME280;4358;42.100;25.222;2024-01-07T13:33:53;98115.06;;;14.47;100.00
8641;BME280;4358;42.100;25.222;2024-01-07T13:36:20;98117.06;;;14.36;100.00
8641;BME280;4358;42.100;25.222;2024-01-07T13:38:47;98106.72;;;14.41;100.00
8641;BME280;4358;42.100;25.222;2024-01-07T13:41:15;98091.34;;;14.35;100.00
8641;BME280;4358;42.100;25.222;2024-01-07T13:43:43;98104.41;;;14.38;100.00
8641;BME280;4358;42.100;25.222;2024-01-07T13:46:11;98100.91;;;14.38;100.00
8641;BME280;4358;42.100;25.222;2024-01-07T13:48:38;98100.72;;;14.31;100.00
8641;BME280;4358;42.100;25.222;2024-01-07T13:51:06;98104.06;;;14.41;100.00
8641;BME280;4358;42.100;25.222;2024-01-07T13:53:34;98111.38;;;14.48;100.00
8641;BME280;4358;42.100;25.222;2024-01-07T13:56:01;98119.22;;;14.33;100.00
8641;BME280;4358;42.100;25.222;2024-01-07T13:58:28;98114.06;;;14.23;100.00
8641;BME280;4358;42.100;25.222;2024-01-07T14:00:55;98113.53;;;14.36;100.00
8641;BME280;4358;42.100;25.222;2024-01-07T14:03:23;98105.06;;;14.40;100.00
8641;BME280;4358;42.100;25.222;2024-01-07T14:05:50;98102.56;;;14.39;100.00
8641;BME280;4358;42.100;25.222;2024-01-07T14:08:17;98105.06;;;14.40;100.00
8641;BME280;4358;42.100;25.222;2024-01-07T14:10:44;98101.75;;;14.38;100.00
8641;BME280;4358;42.100;25.222;2024-01-07T14:13:10;98099.34;;;14.35;100.00
8641;BME280;4358;42.100;25.222;2024-01-07T14:15:37;98099.91;;;14.39;100.00
8641;BME280;4358;42.100;25.222;2024-01-07T14:18:04;98102.38;;;14.32;100.00
8641;BME280;4358;42.100;25.222;2024-01-07T14:20:33;98094.38;;;14.24;100.00
8641;BME280;4358;42.100;25.222;2024-01-07T14:23:00;98093.06;;;14.20;100.00
8641;BME280;4358;42.100;25.222;2024-01-07T14:25:26;98100.06;;;14.21;100.00
8641;BME280;4358;42.100;25.222;2024-01-07T14:27:53;98104.06;;;14.17;100.00
8641;BME280;4358;42.100;25.222;2024-01-07T14:30:20;98112.59;;;14.13;100.00
8641;BME280;4358;42.100;25.222;2024-01-07T14:32:48;98104.41;;;14.14;100.00
8641;BME280;4358;42.100;25.222;2024-01-07T14:35:16;98105.44;;;13.97;100.00
8641;BME280;4358;42.100;25.222;2024-01-07T14:37:44;98097.09;;;13.84;100.00
8641;BME280;4358;42.100;25.222;2024-01-07T14:40:11;98090.75;;;13.77;100.00
8641;BME280;4358;42.100;25.222;2024-01-07T14:42:38;98089.75;;;13.70;100.00
8641;BME280;4358;42.100;25.222;2024-01-07T14:45:06;98088.09;;;13.61;100.00
8641;BME280;4358;42.100;25.222;2024-01-07T14:47:32;98089.25;;;13.66;100.00
8641;BME280;4358;42.100;25.222;2024-01-07T14:49:59;98100.06;;;13.56;100.00
8641;BME280;4358;42.100;25.222;2024-01-07T14:52:28;98098.06;;;13.50;100.00
8641;BME280;4358;42.100;25.222;2024-01-07T14:54:56;98100.41;;;13.53;100.00
8641;BME280;4358;42.100;25.222;2024-01-07T14:57:23;98103.41;;;13.58;100.00
8641;BME280;4358;42.100;25.222;2024-01-07T14:59:49;98117.41;;;13.61;100.00
8641;BME280;4358;42.100;25.222;2024-01-07T15:02:17;98115.75;;;13.60;100.00
8641;BME280;4358;42.100;25.222;2024-01-07T15:04:44;98106.06;;;13.58;100.00
8641;BME280;4358;42.100;25.222;2024-01-07T15:07:11;98113.91;;;13.60;100.00
8641;BME280;4358;42.100;25.222;2024-01-07T15:09:38;98119.41;;;13.58;100.00
8641;BME280;4358;42.100;25.222;2024-01-07T15:12:07;98127.56;;;13.57;100.00
8641;BME280;4358;42.100;25.222;2024-01-07T15:14:34;98119.25;;;13.60;100.00